x

Half Moon Bay - 24nm Ssw Of San Francisco, Ca (46012) Wave Buoy

6:50pm - Mon 25th Jul 2016 All times are PDT. -7 hours from GMT.

  • Sig Wave height 6.2ft
  • Swell Direction
  • Peak Period 9s
  • Average Period 6s
  • Wind
    11mph, 13mph gusts
  • Sea Temp 55°f
  • Sea Pressure 1014.1mb
  • Half Moon Bay - 24nm Ssw Of San Francisco, Ca
  • Half Moon Bay - 24nm Ssw Of San Francisco, Ca

More Historic Weather Station data

Upgrade to MSW Pro to gain access to the past 30 days of data for over 8000 Wavebouys and Weather Stations around the globe.

Join Pro

Comparision Forecast

View Surf forecast
   
Mon 07/25 6:50pm 6ft 9s 6s 11 13 mph 1014.1mb 55f
5:50pm 6ft 8s 7s 13 16 mph 1014.1mb 55f
4:50pm 6.5ft 9s 7s 11 13 mph 1014.7mb 55f
3:50pm 6ft 9s 7s 7 9 mph 1015.4mb 55f
2:50pm 6ft 9s 7s 11 13 mph 1015.4mb 55f
1:50pm 5.5ft 9s 7s 13 16 mph 1015.6mb 55f
12:50pm 6ft 8s 7s 11 13 mph 1015.9mb 55f
11:50am 6.5ft 8s 7s 11 13 mph 1016.1mb 55f
10:50am 7ft 9s 7s 9 13 mph 1016.2mb 55f
9:50am 7ft 9s 6s 11 16 mph 1016.1mb 55f
8:50am 7.5ft 8s 6s 18 22 mph 1015.6mb 55f
7:50am 8.5ft 9s 7s 18 20 mph 1015.4mb 55f
6:50am 8ft 9s 7s 18 22 mph 1015.1mb 55f
5:50am 8.5ft 9s 7s 18 22 mph 1014.7mb 55f
4:50am 9.5ft 9s 7s 18 20 mph 1014.7mb 55f
3:50am 9ft 9s 7s 18 22 mph 1014.6mb 55f
2:50am 7.5ft 9s 7s 18 20 mph 1014.7mb 55f
1:50am 7ft 8s 7s 13 16 mph 1014.8mb 55f
12:50am 7.5ft 8s 7s 13 18 mph 1014.9mb 55f
Sun 07/24 11:50pm 7ft 8s 7s 16 20 mph 1015mb 55f
10:50pm 7ft 8s 6s 16 20 mph 1014.8mb 55f
9:50pm 7.5ft 8s 7s 16 25 mph 1014.5mb 56f
8:50pm 8ft 9s 7s 7 9 mph 1014.3mb 56f
7:50pm 8ft 9s 7s 7 9 mph 1014.2mb 56f
6:50pm 7.5ft 10s 7s 13 16 mph 1014.1mb 55f
5:50pm 7.5ft 8s 6s 16 18 mph 1014.1mb 55f
4:50pm 9ft 9s 7s 20 25 mph 1013.7mb 55f
3:50pm 8.5ft 9s 7s 18 22 mph 1014mb 55f
2:50pm 8.5ft 9s 6s 18 20 mph 1014.2mb 55f
1:50pm 8.5ft 10s 7s 18 22 mph 1014.2mb 55f
12:50pm 8ft 10s 6s 20 25 mph 1014.2mb 55f
11:50am 9ft 10s 7s 20 25 mph 1014mb 55f
10:50am 8ft 8s 6s 20 22 mph 1014mb 55f
9:50am 8.5ft 9s 7s 22 27 mph 1013.4mb 55f
8:50am 8.5ft 9s 6s 20 22 mph 1013.4mb 56f
7:50am 7.5ft 8s 6s 20 25 mph 1012.8mb 56f
6:50am 8ft 8s 7s 20 25 mph 1012.2mb 56f
5:50am 8.5ft 9s 7s 16 18 mph 1011.9mb 56f
4:50am 8ft 9s 7s 13 18 mph 1011.7mb 56f
3:50am 8.5ft 9s 7s 16 18 mph 1011.7mb 56f
2:50am 9.5ft 9s 7s 13 16 mph 1011.7mb 56f
1:50am 8ft 9s 7s 13 16 mph 1012.2mb 56f
12:50am 8ft 9s 6s 18 20 mph 1012.4mb 56f
Sat 07/23 11:50pm 8.5ft 8s 7s 16 18 mph 1013mb 56f
10:50pm 8ft 9s 7s 16 20 mph 1013.4mb 56f
9:50pm 8.5ft 8s 7s 18 22 mph 1013.5mb 56f
8:50pm 8.5ft 8s 7s 18 20 mph 1013.3mb 56f
7:50pm 9ft 8s 6s 16 18 mph 1013.6mb 56f
6:50pm 8ft 8s 7s 18 20 mph 1013.5mb 56f
5:50pm 8ft 8s 6s 22 27 mph 1013.8mb 56f
4:50pm 9ft 8s 7s 20 25 mph 1014.6mb 56f
3:50pm 8.5ft 8s 6s 18 22 mph 1015.2mb 56f
2:50pm 8ft 8s 6s 20 25 mph 1015.5mb 56f
1:50pm 8.5ft 8s 6s 25 29 mph 1016.1mb 56f
12:50pm 8.5ft 9s 6s 27 29 mph 1016.3mb 56f
11:50am 8ft 8s 6s 22 27 mph 1016.8mb 56f
10:50am 7.5ft 8s 6s 20 25 mph 1017.1mb 56f
9:50am 7ft 8s 6s 25 27 mph 1017mb 57f
8:50am 7ft 9s 6s 22 27 mph 1016.9mb 57f
7:50am 7.5ft 8s 6s 18 20 mph 1016.8mb 57f
6:50am 6.5ft 8s 6s 18 20 mph 1016.4mb 58f
5:50am 7.5ft 8s 7s 13 16 mph 1016.5mb 58f
4:50am 7ft 8s 6s 13 16 mph 1016.3mb 58f
3:50am 7.5ft 8s 6s 16 20 mph 1016.2mb 58f
2:50am 7.5ft 8s 6s 18 20 mph 1016.5mb 58f
1:50am 7ft 8s 6s 16 18 mph 1017.1mb 58f
12:50am 8ft 8s 6s 16 20 mph 1017.4mb 58f
Fri 07/22 11:50pm 7ft 8s 6s 18 22 mph 1017.3mb 58f
10:50pm 6.5ft 7s 6s 18 20 mph 1018.1mb 58f
9:50pm 6ft 8s 6s 22 27 mph 1018mb 58f
8:50pm 6ft 7s 6s 22 27 mph 1017.6mb 59f
7:50pm 5.5ft 7s 5s 22 27 mph 1017.9mb 59f
6:50pm 5ft 6s 6s 20 22 mph 1018.6mb 59f
5:50pm 5ft 16s 6s 18 22 mph 1019.2mb 59f
4:50pm 5ft 16s 6s 18 20 mph 1019.9mb 59f
3:50pm 5ft 7s 6s 13 16 mph 1020.7mb 59f
2:50pm 5.5ft 6s 6s 9
mph
1021.4mb 58f
1:50pm 5.5ft 7s 6s 13 16 mph 1021.7mb 58f
12:50pm 6ft 7s 6s 16 18 mph 1022.1mb 58f
11:50am 5ft 6s 6s 18 22 mph 1021.8mb 58f
10:50am 5ft 6s 5s 18 20 mph 1021.8mb 58f
9:50am 5ft 6s 5s 18 22 mph 1021.4mb 58f
8:50am 5ft 6s 5s 18 20 mph 1021.2mb 58f
7:50am 5ft 6s 5s 18 22 mph 1020.5mb 58f
6:50am 5ft 6s 5s 13 16 mph 1020.2mb 58f
5:50am 5ft 15s 5s 20 25 mph 1019.6mb 58f
4:50am 5.5ft 6s 6s 20 25 mph 1019.5mb 58f
3:50am 5ft 6s 6s 18 22 mph 1019.5mb 58f